Time;durP1;ratioP1;P1;durP2;ratioP2;P2;SDS_P1;SDS_P2;PMS_P1;PMS_P2;Temp;Humidity;BMP_temperature;BMP_pressure;BME280_temperature;BME280_humidity;BME280_pressure;Samples;Min_cycle;Max_cycle;Signal;HPM_P1;HPM_P2
2021/09/17 00:01:54;;;;;;;10.35;7.55;;;;;;;17.03;63.83;99943.66;6220648;23;20027;-80
2021/09/17 00:04:21;;;;;;;11.05;7.75;;;;;;;17.06;63.96;99935.47;6220500;23;20063;-80
2021/09/17 00:06:50;;;;;;;8.48;6.97;;;;;;;17.08;64.10;99935.34;6221040;23;20024;-80
2021/09/17 00:09:19;;;;;;;10.65;8.40;;;;;;;17.11;64.14;99938.56;6220419;23;20020;-80
2021/09/17 00:11:48;;;;;;;10.07;7.88;;;;;;;17.13;64.59;99936.66;6220377;23;20027;-80
2021/09/17 00:14:16;;;;;;;10.30;8.63;;;;;;;17.16;63.88;99932.91;6220847;23;20444;-80
2021/09/17 00:16:43;;;;;;;12.77;8.00;;;;;;;17.18;63.95;99939.78;6220682;23;20019;-80
2021/09/17 00:19:12;;;;;;;12.32;8.90;;;;;;;17.18;64.60;99938.91;6220433;23;20020;-80
2021/09/17 00:21:39;;;;;;;10.38;8.32;;;;;;;17.21;63.86;99932.50;6221457;23;20034;-80
2021/09/17 00:24:06;;;;;;;9.90;7.88;;;;;;;17.22;63.91;99939.50;6220571;23;20028;-80
2021/09/17 00:26:40;;;;;;;11.13;7.97;;;;;;;17.21;64.59;99946.66;6220311;23;20027;-80
2021/09/17 00:29:07;;;;;;;10.23;8.27;;;;;;;17.25;64.07;99939.25;6220803;23;20395;-80
2021/09/17 00:31:34;;;;;;;12.02;8.10;;;;;;;17.25;64.08;99936.59;6220290;23;20026;-80
2021/09/17 00:34:03;;;;;;;12.40;8.57;;;;;;;17.25;64.10;99931.28;6220072;23;20030;-80
2021/09/17 00:36:30;;;;;;;10.80;8.23;;;;;;;17.26;63.84;99931.16;6220261;23;20026;-80
2021/09/17 00:38:57;;;;;;;11.25;7.93;;;;;;;17.25;63.44;99924.16;6220356;23;20098;-80
2021/09/17 00:41:27;;;;;;;12.70;8.93;;;;;;;17.22;64.06;99928.88;6220487;23;20093;-80
2021/09/17 00:43:54;;;;;;;14.90;10.05;;;;;;;17.22;63.91;99927.06;6219813;23;20028;-80
2021/09/17 00:46:21;;;;;;;12.00;9.48;;;;;;;17.23;63.82;99922.59;6220530;23;20020;-80
2021/09/17 00:48:50;;;;;;;13.98;9.90;;;;;;;17.22;64.63;99921.75;6220497;23;20020;-80
2021/09/17 00:51:17;;;;;;;11.45;8.48;;;;;;;17.24;64.37;99925.13;6220181;23;20020;-80
2021/09/17 00:53:44;;;;;;;11.00;9.48;;;;;;;17.25;64.18;99921.50;6220210;23;20099;-80
2021/09/17 00:56:38;;;;;;;11.27;9.57;;;;;;;17.24;65.39;99916.28;6220667;23;20346;-80
2021/09/17 00:59:04;;;;;;;;;;;;;;;17.30;64.31;99921.09;6246899;23;20027;-80
2021/09/17 01:01:31;;;;;;;10.63;8.38;;;;;;;17.35;63.86;99915.41;6220476;23;20342;-80
2021/09/17 01:04:18;;;;;;;10.20;8.93;;;;;;;17.30;65.09;99916.63;6220484;23;20024;-80
2021/09/17 01:06:45;;;;;;;13.23;9.50;;;;;;;17.35;64.21;99918.06;6220378;23;20020;-80
2021/09/17 01:09:12;;;;;;;13.93;9.65;;;;;;;17.35;64.45;99908.28;6219672;23;20032;-80
2021/09/17 01:11:39;;;;;;;10.90;9.20;;;;;;;17.37;64.55;99910.78;6220201;23;20020;-80
2021/09/17 01:14:07;;;;;;;10.98;9.05;;;;;;;17.39;64.61;99908.84;6220213;23;20020;-80
2021/09/17 01:16:45;;;;;;;11.80;9.48;;;;;;;17.39;65.43;99908.84;6219883;23;20035;-80
2021/09/17 01:19:12;;;;;;;13.35;9.48;;;;;;;17.45;64.60;99900.34;6246364;23;20024;-80
2021/09/17 01:21:39;;;;;;;15.55;9.43;;;;;;;17.48;64.48;99901.91;6220124;23;20346;-80
2021/09/17 01:24:23;;;;;;;16.85;10.05;;;;;;;17.46;65.27;99902.06;6219864;23;20096;-80
2021/09/17 01:26:49;;;;;;;13.18;10.10;;;;;;;17.51;64.49;99897.19;6220318;23;20022;-80
2021/09/17 01:29:17;;;;;;;15.05;10.50;;;;;;;17.51;64.62;99899.84;6246758;23;20020;-80
2021/09/17 01:31:44;;;;;;;13.70;10.30;;;;;;;17.51;64.28;99897.19;6219682;23;20020;-80
2021/09/17 01:34:16;;;;;;;11.40;9.25;;;;;;;17.49;64.79;99896.44;6219895;23;20023;-80
2021/09/17 01:36:53;;;;;;;10.85;9.02;;;;;;;17.47;64.69;99894.91;6219620;23;20034;-80
2021/09/17 01:39:20;;;;;;;11.40;9.57;;;;;;;17.48;64.16;99897.44;6246318;23;20020;-80
2021/09/17 01:41:48;;;;;;;10.23;9.07;;;;;;;17.45;64.05;99893.22;6220229;23;20042;-80
2021/09/17 01:44:39;;;;;;;13.55;9.63;;;;;;;17.39;64.56;99888.44;6219795;23;20024;-80
2021/09/17 01:47:07;;;;;;;13.45;10.18;;;;;;;17.42;64.10;99887.31;6219984;23;20340;-80
2021/09/17 01:49:34;;;;;;;11.13;9.43;;;;;;;17.38;63.90;99877.91;6220073;23;20020;-80
2021/09/17 01:52:05;;;;;;;10.63;9.32;;;;;;;17.34;64.62;99879.97;6219769;23;20034;-80
2021/09/17 01:54:32;;;;;;;11.02;9.27;;;;;;;17.34;64.06;99876.47;6219571;23;20024;-80
2021/09/17 01:56:59;;;;;;;11.85;9.05;;;;;;;17.31;64.06;99883.72;6219879;23;20400;-80
2021/09/17 01:59:32;;;;;;;12.18;9.35;;;;;;;17.28;64.73;99883.16;6219951;23;20020;-80
2021/09/17 02:01:59;;;;;;;14.07;8.95;;;;;;;17.29;63.88;99884.81;6219890;23;20028;-80
2021/09/17 02:04:26;;;;;;;11.00;8.77;;;;;;;17.27;64.03;99879.63;6220100;23;20384;-80
2021/09/17 02:06:54;;;;;;;9.73;8.73;;;;;;;17.25;64.18;99876.28;6219482;23;20021;-80
2021/09/17 02:09:21;;;;;;;11.50;8.60;;;;;;;17.23;64.24;99883.50;6219950;23;20400;-80
2021/09/17 02:11:47;;;;;;;10.90;9.50;;;;;;;17.22;64.15;99875.66;6219483;23;20034;-80
2021/09/17 02:14:14;;;;;;;11.05;9.40;;;;;;;17.19;63.94;99872.31;6219319;23;20027;-80
2021/09/17 02:16:41;;;;;;;10.48;8.48;;;;;;;17.19;64.08;99876.75;6219061;23;20035;-80
2021/09/17 02:19:08;;;;;;;11.57;9.02;;;;;;;17.15;64.00;99875.31;6219169;23;20020;-80
2021/09/17 02:21:49;;;;;;;10.95;8.65;;;;;;;17.08;64.53;99877.66;6221401;23;20027;-80
2021/09/17 02:24:16;;;;;;;12.05;9.38;;;;;;;17.11;64.12;99869.44;6221310;23;20026;-80
2021/09/17 02:26:43;;;;;;;13.77;9.27;;;;;;;17.07;64.25;99865.34;6221890;23;20351;-80
2021/09/17 02:29:10;;;;;;;11.95;9.13;;;;;;;17.05;64.30;99860.13;6222190;23;20020;-80
2021/09/17 02:31:37;;;;;;;10.13;8.43;;;;;;;17.04;64.23;99861.13;6221442;23;20034;-80
2021/09/17 02:34:04;;;;;;;9.90;7.75;;;;;;;17.03;64.34;99856.75;6221236;23;20020;-80
2021/09/17 02:36:36;;;;;;;12.13;9.20;;;;;;;17.01;65.10;99863.16;6221782;23;20343;-80
2021/09/17 02:39:06;;;;;;;15.65;10.40;;;;;;;17.01;64.99;99855.19;6221476;23;20543;-80
2021/09/17 02:41:33;;;;;;;15.50;9.45;;;;;;;17.02;64.51;99862.19;6222128;23;20028;-80
2021/09/17 02:44:01;;;;;;;11.55;9.35;;;;;;;17.00;64.68;99862.31;6221526;23;20086;-80
2021/09/17 02:46:33;;;;;;;12.20;10.18;;;;;;;16.99;65.26;99868.59;6221262;23;20066;-80
2021/09/17 02:49:00;;;;;;;12.63;10.15;;;;;;;17.01;65.03;99865.81;6247909;23;20095;-80
2021/09/17 02:51:37;;;;;;;14.57;11.23;;;;;;;16.99;65.57;99860.63;6221707;23;20330;-80
2021/09/17 02:54:03;;;;;;;13.15;10.60;;;;;;;17.02;65.22;99865.69;6221189;23;20020;-80
2021/09/17 02:56:30;;;;;;;12.63;10.43;;;;;;;17.04;65.23;99852.25;6221199;23;20024;-80
2021/09/17 02:58:59;;;;;;;11.88;10.30;;;;;;;17.03;65.49;99855.88;6247548;23;20020;-80
2021/09/17 03:01:26;;;;;;;13.38;10.57;;;;;;;17.05;65.12;99849.50;6221487;23;20335;-80
2021/09/17 03:03:53;;;;;;;17.63;11.70;;;;;;;17.05;65.35;99848.69;6221143;23;20032;-80
2021/09/17 03:06:33;;;;;;;14.95;10.75;;;;;;;17.03;65.97;99850.56;6221658;23;20447;-80
2021/09/17 03:08:59;;;;;;;15.85;11.75;;;;;;;17.08;65.20;99847.56;6221154;23;20023;-80
2021/09/17 03:11:27;;;;;;;16.38;11.98;;;;;;;17.06;65.43;99847.69;6221376;23;20484;-80
2021/09/17 03:13:58;;;;;;;15.48;11.63;;;;;;;17.06;65.90;99843.22;6221219;23;20447;-80
2021/09/17 03:16:25;;;;;;;14.88;11.00;;;;;;;17.08;65.24;99836.94;6221345;23;20027;-80
2021/09/17 03:18:53;;;;;;;14.95;11.20;;;;;;;17.06;65.67;99831.75;6220964;23;20020;-80
2021/09/17 03:21:20;;;;;;;13.60;10.98;;;;;;;17.07;65.45;99833.41;6220996;23;20027;-80
2021/09/17 03:23:47;;;;;;;14.38;11.50;;;;;;;17.07;65.59;99836.09;6220994;23;20027;-80
2021/09/17 03:26:20;;;;;;;14.52;10.95;;;;;;;17.05;66.07;99841.53;6221071;23;20028;-80
2021/09/17 03:28:47;;;;;;;13.73;10.95;;;;;;;17.09;65.56;99838.63;6221344;23;20395;-80
2021/09/17 03:31:14;;;;;;;15.23;12.07;;;;;;;17.09;65.61;99830.63;6221083;23;20020;-80
2021/09/17 03:33:48;;;;;;;15.55;11.80;;;;;;;17.07;66.12;99828.09;6220761;23;20035;-80
2021/09/17 03:36:14;;;;;;;14.95;11.00;;;;;;;17.10;65.44;99830.50;6220660;23;20038;-80
2021/09/17 03:38:57;;;;;;;13.77;11.23;;;;;;;17.05;66.41;99825.56;6220989;23;20342;-80
2021/09/17 03:41:24;;;;;;;14.05;11.18;;;;;;;17.11;65.51;99823.34;6220977;23;20028;-80
2021/09/17 03:43:51;;;;;;;15.00;12.57;;;;;;;17.10;65.75;99821.69;6221045;23;20020;-80
2021/09/17 03:46:35;;;;;;;16.15;12.43;;;;;;;17.05;66.30;99822.09;6220832;23;20028;-80
2021/09/17 03:49:02;;;;;;;15.50;11.27;;;;;;;17.08;65.68;99816.47;6221038;23;20016;-80
2021/09/17 03:51:29;;;;;;;16.15;12.07;;;;;;;17.08;65.53;99810.34;6220535;23;20020;-80
2021/09/17 03:54:39;;;;;;;16.08;12.18;;;;;;;17.03;66.48;99813.34;6247120;23;20020;-80
2021/09/17 03:57:06;;;;;;;15.32;10.65;;;;;;;17.08;65.48;99816.47;6220799;23;20038;-80
2021/09/17 03:59:32;;;;;;;17.85;12.15;;;;;;;17.07;65.64;99814.81;6247083;23;20020;-80
2021/09/17 04:02:01;;;;;;;15.77;10.68;;;;;;;17.06;65.60;99813.97;6220668;23;20099;-80
2021/09/17 04:04:28;;;;;;;14.82;11.05;;;;;;;17.06;65.76;99816.63;6220966;23;20074;-80
2021/09/17 04:06:55;;;;;;;19.52;12.02;;;;;;;17.04;65.47;99815.91;6220617;23;20020;-80
2021/09/17 04:09:57;;;;;;;19.35;12.07;;;;;;;17.00;66.20;99816.25;6220879;23;20024;-80
2021/09/17 04:12:24;;;;;;;15.38;11.93;;;;;;;17.02;65.31;99815.19;6220368;23;20016;-80
2021/09/17 04:14:51;;;;;;;17.85;12.13;;;;;;;17.01;65.63;99812.63;6247330;23;20107;-80
2021/09/17 04:20:38;;;;;;;18.60;11.55;;;;;;;16.98;65.26;99819.06;6247807;23;20024;-80
2021/09/17 04:23:05;;;;;;;15.63;12.20;;;;;;;16.95;65.31;99811.34;6220564;23;20026;-80
2021/09/17 04:25:42;;;;;;;16.67;12.13;;;;;;;16.90;65.98;99817.00;6220253;23;20024;-80
2021/09/17 04:28:08;;;;;;;12.85;11.18;;;;;;;16.90;65.40;99818.84;6220305;23;20023;-80
2021/09/17 04:30:36;;;;;;;18.20;11.73;;;;;;;16.87;65.63;99819.09;6220408;23;20016;-80
2021/09/17 04:33:06;;;;;;;18.98;12.80;;;;;;;16.86;65.51;99817.41;6221269;23;20059;-80
2021/09/17 04:35:58;;;;;;;17.92;12.20;;;;;;;16.78;66.07;99821.53;6219808;23;20024;-80
2021/09/17 04:38:24;;;;;;;14.93;11.00;;;;;;;16.82;65.35;99815.97;6220176;23;20020;-80
2021/09/17 04:40:52;;;;;;;14.43;11.60;;;;;;;16.79;65.59;99822.41;6220019;23;20020;-80
2021/09/17 04:43:19;;;;;;;18.15;12.77;;;;;;;16.77;65.51;99819.00;6219816;23;20028;-80
2021/09/17 04:45:45;;;;;;;17.25;13.02;;;;;;;16.75;65.88;99823.63;6220472;23;20027;-80
2021/09/17 04:48:15;;;;;;;17.38;12.25;;;;;;;16.73;66.45;99834.38;6220215;23;20016;-80
2021/09/17 04:50:43;;;;;;;16.58;12.68;;;;;;;16.76;66.37;99825.31;6220228;23;20026;-80
2021/09/17 04:53:10;;;;;;;16.58;12.73;;;;;;;16.77;66.36;99829.63;6220487;23;20027;-80
2021/09/17 04:55:38;;;;;;;18.17;13.15;;;;;;;16.79;66.93;99828.53;6219831;23;20027;-80
2021/09/17 04:58:08;;;;;;;19.38;13.68;;;;;;;16.82;66.91;99829.28;6219990;23;20020;-80
2021/09/17 05:00:36;;;;;;;17.70;13.57;;;;;;;16.85;66.97;99832.50;6220163;23;20020;-80
2021/09/17 05:03:03;;;;;;;17.77;13.43;;;;;;;16.89;67.02;99833.09;6220325;23;20058;-80
2021/09/17 05:05:30;;;;;;;17.73;12.48;;;;;;;16.92;66.97;99833.69;6246802;23;20420;-80
2021/09/17 05:08:02;;;;;;;18.20;14.82;;;;;;;16.93;67.58;99835.38;6220352;23;20487;-80
2021/09/17 05:10:29;;;;;;;19.55;14.13;;;;;;;16.98;66.81;99840.34;6219894;23;20035;-80
2021/09/17 05:12:55;;;;;;;22.15;15.98;;;;;;;17.01;67.04;99842.72;6219990;23;20095;-80
2021/09/17 05:16:04;;;;;;;20.33;14.80;;;;;;;16.99;67.42;99836.69;6220016;23;20095;-81
2021/09/17 05:18:47;;;;;;;19.30;14.50;;;;;;;17.03;67.23;99838.13;6246165;23;20016;-81
2021/09/17 05:21:14;;;;;;;18.75;13.95;;;;;;;17.08;66.67;99832.44;6220108;23;20347;-83
2021/09/17 05:23:54;;;;;;;22.13;16.23;;;;;;;17.05;67.55;99824.75;6219598;23;20027;-82
2021/09/17 05:26:22;;;;;;;23.23;16.25;;;;;;;17.09;66.66;99817.34;6219775;23;20034;-82
2021/09/17 05:28:48;;;;;;;22.55;16.00;;;;;;;17.11;66.89;99834.00;6220410;23;20039;-83
2021/09/17 05:31:26;;;;;;;21.30;14.65;;;;;;;17.09;67.77;99823.50;6219889;23;20024;-83
2021/09/17 05:33:53;;;;;;;24.58;16.38;;;;;;;17.13;67.18;99822.28;6219852;23;20027;-83
2021/09/17 05:36:19;;;;;;;26.13;16.73;;;;;;;17.15;67.25;99819.47;6219927;23;20028;-83
2021/09/17 05:38:50;;;;;;;22.98;17.33;;;;;;;17.15;67.84;99817.66;6219401;23;20376;-83
2021/09/17 05:41:17;;;;;;;29.48;17.58;;;;;;;17.19;67.36;99827.06;6219478;23;20094;-83
2021/09/17 05:43:53;;;;;;;29.27;19.13;;;;;;;17.19;67.90;99819.09;6219391;23;20028;-83
2021/09/17 05:46:19;;;;;;;28.95;18.33;;;;;;;17.26;67.41;99831.88;6220434;23;20351;-82
2021/09/17 05:52:34;;;;;;;22.50;15.00;;;;;;;17.34;66.94;99831.25;6246087;23;20035;-78
2021/09/17 05:55:03;;;;;;;21.55;16.80;;;;;;;17.36;67.13;99842.59;6245577;23;20023;-79
2021/09/17 05:57:38;;;;;;;26.95;17.45;;;;;;;17.35;67.73;99840.91;6247045;23;20026;-79
2021/09/17 06:00:10;;;;;;;24.13;18.73;;;;;;;17.40;67.37;99838.69;6220146;23;20451;-80
2021/09/17 06:02:37;;;;;;;23.10;17.20;;;;;;;17.41;67.23;99843.88;6220413;23;20031;-80
2021/09/17 06:05:05;;;;;;;25.48;19.33;;;;;;;17.43;67.17;99843.75;6220075;23;20098;-79
2021/09/17 06:07:39;;;;;;;26.10;18.95;;;;;;;17.42;67.58;99852.72;6219772;23;20086;-79
2021/09/17 06:10:06;;;;;;;26.05;19.17;;;;;;;17.45;67.20;99845.31;6219688;23;20024;-79
2021/09/17 06:12:33;;;;;;;28.63;20.85;;;;;;;17.47;67.08;99847.84;6219404;23;20020;-78
2021/09/17 06:15:00;;;;;;;28.00;19.02;;;;;;;17.49;67.46;99856.53;6219602;23;20020;-78
2021/09/17 06:17:27;;;;;;;27.90;20.33;;;;;;;17.51;67.48;99846.63;6219772;23;20073;-79
2021/09/17 06:19:53;;;;;;;26.45;18.05;;;;;;;17.53;67.41;99852.63;6219985;23;20447;-79
2021/09/17 06:22:20;;;;;;;27.40;18.33;;;;;;;17.56;67.43;99847.06;6246660;23;20439;-79
2021/09/17 06:24:53;;;;;;;24.38;18.25;;;;;;;17.57;67.83;99847.91;6245880;23;20024;-79
2021/09/17 06:27:19;;;;;;;26.10;18.25;;;;;;;17.62;67.38;99856.34;6219594;23;20020;-79
2021/09/17 06:29:50;;;;;;;28.17;18.95;;;;;;;17.65;67.83;99849.91;6219776;23;20031;-80
2021/09/17 06:32:17;;;;;;;28.45;19.20;;;;;;;17.69;67.25;99854.00;6219561;23;20095;-80
2021/09/17 06:34:50;;;;;;;30.80;19.85;;;;;;;17.70;67.62;99853.88;6219544;23;20075;-81
2021/09/17 06:37:20;;;;;;;28.08;19.25;;;;;;;17.76;67.50;99856.97;6245993;23;20027;-81
2021/09/17 06:40:04;;;;;;;29.60;20.88;;;;;;;17.77;68.19;99840.88;6219644;23;20024;-81
2021/09/17 06:42:31;;;;;;;28.00;19.77;;;;;;;17.85;67.52;99840.22;6219210;23;20032;-81
2021/09/17 06:45:00;;;;;;;26.52;19.55;;;;;;;17.87;67.82;99846.22;6245956;23;20016;-81
2021/09/17 06:47:27;;;;;;;31.17;19.45;;;;;;;17.92;67.60;99843.19;6219726;23;20071;-81
2021/09/17 06:49:54;;;;;;;25.45;18.48;;;;;;;17.95;67.47;99842.94;6219348;23;20024;-81
2021/09/17 06:52:20;;;;;;;25.23;19.15;;;;;;;18.00;67.71;99845.16;6219712;23;20098;-81
2021/09/17 06:55:04;;;;;;;28.38;19.25;;;;;;;18.01;68.25;99846.88;6245502;23;20043;-81
2021/09/17 06:57:30;;;;;;;29.02;17.10;;;;;;;18.10;67.56;99836.28;6219564;23;20028;-81
2021/09/17 06:59:58;;;;;;;24.98;17.45;;;;;;;18.17;67.63;99843.75;6219414;23;20027;-81
2021/09/17 07:02:25;;;;;;;23.20;17.58;;;;;;;18.21;67.71;99847.81;6219257;23;20020;-81
2021/09/17 07:04:52;;;;;;;25.55;18.42;;;;;;;18.26;67.54;99848.25;6219701;23;20046;-81
2021/09/17 07:07:19;;;;;;;26.42;18.02;;;;;;;18.32;67.79;99853.03;6220653;23;20055;-81
2021/09/17 07:09:46;;;;;;;22.20;17.63;;;;;;;18.38;67.75;99859.66;6221091;23;20068;-81
2021/09/17 07:12:14;;;;;;;25.33;18.00;;;;;;;18.44;67.90;99861.78;6221158;23;20066;-81
2021/09/17 07:14:41;;;;;;;23.85;17.30;;;;;;;18.52;67.36;99852.25;6221376;23;20355;-81
2021/09/17 07:17:08;;;;;;;23.70;16.67;;;;;;;18.59;67.37;99856.06;6221473;23;20051;-81
2021/09/17 07:19:58;;;;;;;22.10;17.23;;;;;;;18.60;67.56;99855.06;6247889;23;20400;-81
2021/09/17 07:22:26;;;;;;;25.80;17.38;;;;;;;18.69;67.07;99856.06;6221455;23;20095;-81
2021/09/17 07:24:54;;;;;;;23.50;17.08;;;;;;;18.71;66.92;99852.28;6220639;23;20020;-81
2021/09/17 07:27:21;;;;;;;26.42;18.05;;;;;;;18.73;67.07;99852.16;6221335;23;20026;-81
2021/09/17 07:29:48;;;;;;;25.50;17.20;;;;;;;18.75;66.99;99855.50;6220800;23;20016;-81
2021/09/17 07:32:17;;;;;;;25.35;18.05;;;;;;;18.75;66.82;99852.84;6247571;23;20027;-81
2021/09/17 07:34:44;;;;;;;28.08;19.63;;;;;;;18.75;66.99;99858.19;6220752;23;20063;-81
2021/09/17 07:37:18;;;;;;;29.98;20.67;;;;;;;18.73;67.13;99849.50;6220699;23;20095;-80
2021/09/17 07:39:54;;;;;;;31.48;21.10;;;;;;;18.74;67.02;99853.84;6221058;23;20098;-81
2021/09/17 07:42:21;;;;;;;27.45;20.40;;;;;;;18.79;67.00;99851.59;6220758;23;20020;-81
2021/09/17 07:44:48;;;;;;;30.45;20.52;;;;;;;18.83;67.32;99849.47;6220709;23;20074;-81
2021/09/17 07:47:18;;;;;;;25.85;18.83;;;;;;;18.88;67.32;99849.94;6220852;23;20505;-81
2021/09/17 07:49:45;;;;;;;27.67;19.25;;;;;;;18.94;67.27;99853.84;6220927;23;20020;-81
2021/09/17 07:52:12;;;;;;;25.73;18.40;;;;;;;19.01;67.24;99855.81;6220374;23;20020;-81
2021/09/17 07:54:39;;;;;;;23.77;18.08;;;;;;;19.11;67.20;99863.84;6220420;23;20020;-81
2021/09/17 07:57:06;;;;;;;26.98;18.52;;;;;;;19.18;67.12;99858.81;6220758;23;20043;-81
2021/09/17 07:59:40;;;;;;;26.45;18.02;;;;;;;19.22;67.11;99859.34;6220370;23;20043;-81
2021/09/17 08:02:07;;;;;;;23.90;16.63;;;;;;;19.31;66.65;99871.00;6220345;23;20070;-81
2021/09/17 08:04:38;;;;;;;23.23;16.88;;;;;;;19.36;66.50;99866.09;6220344;23;20070;-81
2021/09/17 08:07:30;;;;;;;22.65;17.27;;;;;;;19.37;66.36;99879.28;6220376;23;20095;-81
2021/09/17 08:09:56;;;;;;;59.05;18.52;;;;;;;19.47;66.44;99868.59;6220819;23;20020;-81
2021/09/17 08:12:24;;;;;;;28.25;17.35;;;;;;;19.52;65.92;99870.84;6246998;23;20124;-81
2021/09/17 08:14:55;;;;;;;31.70;16.27;;;;;;;19.55;66.22;99875.06;6220283;23;20016;-81
2021/09/17 08:17:23;;;;;;;23.08;18.23;;;;;;;19.59;66.15;99863.91;6221040;23;20447;-81
2021/09/17 08:19:49;;;;;;;25.85;17.73;;;;;;;19.64;66.03;99875.03;6220743;23;20517;-81
2021/09/17 08:22:30;;;;;;;20.98;16.60;;;;;;;19.66;66.11;99869.53;6220985;23;20320;-81
2021/09/17 08:24:57;;;;;;;22.75;17.27;;;;;;;19.75;65.88;99865.16;6246599;23;20086;-81
2021/09/17 08:27:24;;;;;;;31.60;16.35;;;;;;;19.81;65.90;99863.75;6247729;23;20024;-81
2021/09/17 08:30:05;;;;;;;26.35;17.08;;;;;;;19.83;65.24;99869.78;6220952;23;20016;-81
2021/09/17 08:32:33;;;;;;;20.45;15.88;;;;;;;19.92;65.42;99869.75;6220879;23;20016;-81
2021/09/17 08:35:06;;;;;;;20.98;16.63;;;;;;;19.98;65.36;99867.47;6247055;23;20098;-81
2021/09/17 08:37:32;;;;;;;20.40;16.40;;;;;;;20.02;65.20;99864.41;6220753;23;20058;-81
2021/09/17 08:39:59;;;;;;;19.55;15.40;;;;;;;20.07;64.84;99865.81;6246496;23;20339;-81
2021/09/17 08:42:26;;;;;;;21.25;15.05;;;;;;;20.12;65.05;99861.69;6220122;23;20016;-81
2021/09/17 08:44:53;;;;;;;29.52;16.38;;;;;;;20.16;64.96;99870.25;6220371;23;20091;-81
2021/09/17 08:47:23;;;;;;;17.48;14.90;;;;;;;20.18;64.52;99871.78;6246879;23;20055;-81
2021/09/17 08:49:50;;;;;;;19.73;15.15;;;;;;;20.23;64.68;99866.00;6246756;23;20051;-81
2021/09/17 08:52:18;;;;;;;20.48;15.18;;;;;;;20.27;64.43;99877.25;6246531;23;20044;-81
2021/09/17 08:54:46;;;;;;;20.92;15.52;;;;;;;20.30;64.23;99866.25;6220633;23;20517;-81
2021/09/17 08:57:13;;;;;;;21.17;15.48;;;;;;;20.33;64.22;99863.28;6219970;23;20059;-81
2021/09/17 08:59:43;;;;;;;19.85;15.07;;;;;;;20.34;63.86;99864.13;6246563;23;20020;-81
2021/09/17 09:02:24;;;;;;;20.00;15.02;;;;;;;20.30;64.07;99863.59;6220024;23;20019;-81
2021/09/17 09:04:58;;;;;;;19.75;14.10;;;;;;;20.35;64.14;99866.66;6220649;23;20338;-81
2021/09/17 09:07:42;;;;;;;16.70;14.88;;;;;;;20.32;63.71;99869.63;6220119;23;20020;-81
2021/09/17 09:10:12;;;;;;;19.20;14.63;;;;;;;20.36;63.39;99865.66;6220013;23;20444;-81
2021/09/17 09:13:01;;;;;;;17.23;13.13;;;;;;;20.33;63.75;99863.28;6219554;23;20317;-81
2021/09/17 09:15:30;;;;;;;19.98;14.60;;;;;;;20.37;63.53;99861.16;6219514;23;20070;-81
2021/09/17 09:18:20;;;;;;;18.13;15.27;;;;;;;20.36;64.08;99864.81;6220053;23;20016;-81
2021/09/17 09:20:49;;;;;;;15.43;13.68;;;;;;;20.36;63.59;99856.78;6219558;23;20094;-81
2021/09/17 09:23:26;;;;;;;20.02;15.35;;;;;;;20.34;63.67;99869.47;6219755;23;20023;-81
2021/09/17 09:26:12;;;;;;;21.58;15.13;;;;;;;20.32;63.38;99866.94;6219688;23;20439;-81
2021/09/17 09:28:45;;;;;;;16.33;13.88;;;;;;;20.37;63.78;99861.97;6219768;23;20078;-81
2021/09/17 09:31:25;;;;;;;21.92;15.63;;;;;;;20.37;64.14;99863.84;6129531;23;20029;-81
2021/09/17 09:33:53;;;;;;;19.25;14.63;;;;;;;20.44;63.89;99865.75;6129047;23;20476;-81
2021/09/17 09:36:22;;;;;;;20.13;15.05;;;;;;;20.49;63.96;99868.00;6153379;23;20021;-81
2021/09/17 09:39:06;;;;;;;21.02;15.65;;;;;;;20.50;63.73;99858.97;6129314;23;20053;-81
2021/09/17 09:41:35;;;;;;;20.33;15.55;;;;;;;20.59;63.75;99856.38;6153563;23;20076;-81
2021/09/17 09:44:10;;;;;;;17.45;13.90;;;;;;;20.63;63.37;99858.59;6129231;23;20017;-81
2021/09/17 09:46:40;;;;;;;17.67;14.52;;;;;;;20.67;63.22;99857.31;6126351;23;20026;-81
2021/09/17 09:49:28;;;;;;;17.98;14.68;;;;;;;20.67;63.28;99849.28;6129672;23;20017;-81
2021/09/17 09:51:58;;;;;;;16.67;14.80;;;;;;;;;;6129106;23;20025;-81
2021/09/17 09:54:28;;;;;;;17.38;13.10;;;;;;;20.78;63.26;99850.88;6128743;23;20021;-81
2021/09/17 09:56:56;;;;;;;18.70;14.90;;;;;;;20.84;63.29;99865.50;6214595;23;20035;-81
2021/09/17 09:59:29;;;;;;;19.77;15.35;;;;;;;20.88;63.06;99861.56;6219593;23;20016;-81
2021/09/17 10:02:02;;;;;;;16.05;13.48;;;;;;;20.92;63.13;99857.59;6219524;23;20016;-81
2021/09/17 10:04:32;;;;;;;16.33;13.77;;;;;;;21.00;63.03;99861.34;6219600;23;20040;-81
2021/09/17 10:07:05;;;;;;;17.30;13.90;;;;;;;21.04;62.55;99855.50;6219527;23;20020;-81
2021/09/17 10:09:41;;;;;;;16.50;13.65;;;;;;;21.11;63.01;99861.09;6219574;23;20012;-81
2021/09/17 10:12:11;;;;;;;15.50;12.88;;;;;;;21.22;62.71;99852.84;6219536;23;20533;-81
2021/09/17 10:14:45;;;;;;;15.95;12.82;;;;;;;21.31;62.61;99855.56;6219403;23;20016;-81
2021/09/17 10:17:26;;;;;;;15.18;12.52;;;;;;;21.39;62.48;99850.28;6221208;23;20030;-81
2021/09/17 10:19:54;;;;;;;15.82;13.63;;;;;;;21.53;62.64;99851.53;6219704;23;20359;-81
2021/09/17 10:22:46;;;;;;;16.65;13.65;;;;;;;21.60;62.38;99849.06;6220499;23;20024;-81
2021/09/17 10:25:20;;;;;;;14.43;11.85;;;;;;;21.72;61.92;99850.50;6219601;23;20027;-81
2021/09/17 10:28:14;;;;;;;15.82;12.30;;;;;;;21.80;61.94;99846.22;6219723;23;20028;-81
2021/09/17 10:30:42;;;;;;;17.55;13.30;;;;;;;21.93;61.84;99854.66;6194441;23;20020;-82
2021/09/17 10:33:24;;;;;;;16.25;12.70;;;;;;;21.94;60.97;99850.97;6219630;23;20024;-81
2021/09/17 10:35:51;;;;;;;13.98;12.18;;;;;;;22.01;61.09;99856.53;6219747;23;20020;-81
2021/09/17 10:38:25;;;;;;;15.27;12.00;;;;;;;22.02;60.66;99850.19;6219466;23;20036;-81
2021/09/17 10:41:09;;;;;;;15.98;12.60;;;;;;;21.96;60.45;99853.50;6210675;23;20351;-81
2021/09/17 10:43:43;;;;;;;17.48;14.07;;;;;;;21.99;60.43;99851.31;6221463;23;20020;-81
2021/09/17 10:46:19;;;;;;;18.30;13.65;;;;;;;21.98;60.17;99863.06;6217304;23;20054;-81
2021/09/17 10:48:51;;;;;;;16.15;13.52;;;;;;;21.98;59.91;99848.84;6221428;23;20095;-81
2021/09/17 10:51:38;;;;;;;15.82;12.73;;;;;;;21.96;59.98;99848.97;6221535;23;20021;-81
2021/09/17 10:54:11;;;;;;;15.13;12.98;;;;;;;22.01;60.04;99853.84;6221166;23;20115;-81
2021/09/17 10:56:50;;;;;;;18.63;13.77;;;;;;;22.02;60.13;99852.88;6221251;23;20020;-81
2021/09/17 10:59:22;;;;;;;16.75;12.23;;;;;;;22.07;60.03;99847.00;6221652;23;20281;-81
2021/09/17 11:02:05;;;;;;;14.95;12.48;;;;;;;22.04;60.15;99852.69;6221527;23;20028;-81
2021/09/17 11:04:35;;;;;;;16.17;14.48;;;;;;;22.10;59.52;99860.09;6221473;23;20028;-81
2021/09/17 11:07:17;;;;;;;13.18;11.88;;;;;;;22.06;59.51;99858.75;6248347;23;20028;-81
2021/09/17 11:09:53;;;;;;;15.60;13.20;;;;;;;22.08;59.14;99849.53;6221171;23;20090;-81
2021/09/17 11:12:29;;;;;;;14.18;12.70;;;;;;;22.14;59.14;99850.75;6221924;23;20321;-81
2021/09/17 11:15:23;;;;;;;14.60;13.07;;;;;;;22.14;59.56;99848.06;6221374;23;20098;-81
2021/09/17 11:18:08;;;;;;;14.50;12.80;;;;;;;22.19;59.22;99852.91;6206915;23;20345;-81
2021/09/17 11:20:35;;;;;;;21.65;13.23;;;;;;;22.29;59.54;99853.66;6220898;23;20098;-81
2021/09/17 11:23:04;;;;;;;16.63;12.30;;;;;;;22.34;59.29;99854.00;6221354;23;20028;-81
2021/09/17 11:25:44;;;;;;;18.75;12.95;;;;;;;22.37;59.00;99847.47;6221022;23;20019;-81
2021/09/17 11:28:28;;;;;;;15.07;12.23;;;;;;;22.42;58.13;99847.81;6221142;23;20020;-81
2021/09/17 11:31:13;;;;;;;13.43;11.52;;;;;;;22.44;58.53;99853.00;6220841;23;20023;-81
2021/09/17 11:33:41;;;;;;;15.30;12.35;;;;;;;22.47;58.44;99850.84;6221185;23;20079;-81
2021/09/17 11:36:08;;;;;;;16.40;12.38;;;;;;;22.47;58.46;99850.00;6220717;23;20028;-81
2021/09/17 11:38:35;;;;;;;15.00;12.10;;;;;;;22.46;58.45;99854.53;6221190;23;20030;-81
2021/09/17 11:41:02;;;;;;;15.82;12.98;;;;;;;22.46;58.25;99845.66;6220580;23;20020;-81
2021/09/17 11:43:43;;;;;;;16.17;12.63;;;;;;;22.40;58.18;99847.16;6220686;23;20028;-81
2021/09/17 11:46:10;;;;;;;13.07;10.85;;;;;;;22.44;58.08;99850.34;6221058;23;20499;-81